Time;durP1;ratioP1;P1;durP2;ratioP2;P2;SDS_P1;SDS_P2;PMS_P1;PMS_P2;Temp;Humidity;BMP_temperature;BMP_pressure;BME280_temperature;BME280_humidity;BME280_pressure;Samples;Min_cycle;Max_cycle;Signal;HPM_P1;HPM_P2
2023/01/23 00:01:11;;;;;;;5.93;3.70;;;-0.10;99.90;;;;;;4992240;28;20496;-68
2023/01/23 00:03:38;;;;;;;5.35;3.88;;;-0.10;99.90;;;;;;4990316;28;20046;-62
2023/01/23 00:06:11;;;;;;;3.55;3.03;;;-0.10;99.90;;;;;;4989766;28;20384;-63
2023/01/23 00:08:39;;;;;;;4.90;3.90;;;-0.10;99.90;;;;;;4989761;28;20490;-63
2023/01/23 00:11:09;;;;;;;4.53;3.13;;;-0.10;99.90;;;;;;4991507;28;20428;-63
2023/01/23 00:13:37;;;;;;;4.68;3.67;;;-0.10;99.90;;;;;;4995129;28;20078;-63
2023/01/23 00:16:09;;;;;;;4.47;3.63;;;-0.10;99.90;;;;;;4988965;28;20457;-63
2023/01/23 00:18:36;;;;;;;4.32;2.95;;;-0.10;99.90;;;;;;5005532;28;20095;-64
2023/01/23 00:21:08;;;;;;;8.32;4.05;;;-0.10;99.90;;;;;;4999985;28;20366;-65
2023/01/23 00:23:35;;;;;;;4.50;3.47;;;-0.10;99.90;;;;;;4999975;28;20112;-63
2023/01/23 00:26:09;;;;;;;3.58;2.70;;;-0.10;99.90;;;;;;4996203;28;20080;-65
2023/01/23 00:28:37;;;;;;;3.63;3.08;;;-0.20;99.90;;;;;;5031942;28;20145;-64
2023/01/23 00:31:06;;;;;;;4.32;2.78;;;-0.10;99.90;;;;;;4992665;28;20050;-64
2023/01/23 00:33:33;;;;;;;6.28;3.10;;;-0.20;99.90;;;;;;4992814;28;20054;-66
2023/01/23 00:36:00;;;;;;;3.05;2.75;;;-0.20;99.90;;;;;;4997314;28;20137;-62
2023/01/23 00:38:30;;;;;;;6.55;3.22;;;-0.20;99.90;;;;;;5015643;28;20446;-64
2023/01/23 00:40:56;;;;;;;4.13;2.60;;;-0.20;99.90;;;;;;5002723;28;20665;-65
2023/01/23 00:43:24;;;;;;;4.03;3.13;;;-0.20;99.90;;;;;;4993377;28;20049;-64
2023/01/23 00:45:51;;;;;;;3.15;2.85;;;-0.20;99.90;;;;;;4992127;28;20058;-66
2023/01/23 00:48:18;;;;;;;6.90;3.47;;;-0.20;99.90;;;;;;4999809;28;20051;-64
2023/01/23 00:50:45;;;;;;;4.65;2.75;;;-0.20;99.90;;;;;;5010871;28;20048;-65
2023/01/23 00:53:12;;;;;;;3.72;3.08;;;-0.20;99.90;;;;;;4994369;28;20045;-68
2023/01/23 00:55:40;;;;;;;4.80;3.35;;;-0.20;99.90;;;;;;4990391;28;20841;-66
2023/01/23 00:58:07;;;;;;;4.13;2.92;;;-0.20;99.90;;;;;;4991919;28;20157;-66
2023/01/23 01:00:38;;;;;;;3.53;2.80;;;-0.20;99.90;;;;;;5006505;28;20057;-63
2023/01/23 01:03:07;;;;;;;3.53;2.85;;;-0.20;99.90;;;;;;5026507;28;20057;-67
2023/01/23 01:05:34;;;;;;;3.33;2.80;;;-0.20;99.90;;;;;;4995709;28;20042;-64
2023/01/23 01:08:02;;;;;;;3.22;2.92;;;-0.20;99.90;;;;;;4993607;28;20042;-65
2023/01/23 01:10:31;;;;;;;3.28;2.97;;;-0.20;99.90;;;;;;5028751;28;20124;-64
2023/01/23 01:13:02;;;;;;;5.43;3.45;;;-0.20;99.90;;;;;;4990198;28;20043;-63
2023/01/23 01:15:29;;;;;;;2.30;2.10;;;-0.20;99.90;;;;;;4999520;28;20133;-64
2023/01/23 01:17:57;;;;;;;4.50;2.95;;;-0.20;99.90;;;;;;4992567;28;20157;-67
2023/01/23 01:20:27;;;;;;;3.58;3.22;;;-0.20;99.90;;;;;;4997551;28;20046;-64
2023/01/23 01:22:55;;;;;;;2.65;2.45;;;-0.20;99.90;;;;;;5023313;28;20042;-63
2023/01/23 01:25:22;;;;;;;3.60;2.90;;;-0.30;99.90;;;;;;4998772;28;20184;-68
2023/01/23 01:27:49;;;;;;;3.33;2.85;;;-0.20;99.90;;;;;;4992389;28;20441;-64
2023/01/23 01:30:17;;;;;;;2.63;2.40;;;-0.30;99.90;;;;;;4993736;28;20642;-65
2023/01/23 01:32:46;;;;;;;3.42;2.47;;;-0.30;99.90;;;;;;4995796;28;20133;-63
2023/01/23 01:35:13;;;;;;;3.80;2.63;;;-0.30;99.90;;;;;;4996434;28;20074;-66
2023/01/23 01:37:41;;;;;;;3.50;3.17;;;-0.40;99.90;;;;;;4997739;28;20050;-66
2023/01/23 01:40:14;;;;;;;2.97;2.70;;;-0.40;99.90;;;;;;4991896;28;20074;-65
2023/01/23 01:42:51;;;;;;;3.05;2.50;;;-0.40;99.90;;;;;;5002418;28;20462;-65
2023/01/23 01:45:56;;;;;;;2.72;2.28;;;-0.40;99.90;;;;;;5007144;28;20057;-67
2023/01/23 01:48:27;;;;;;;2.65;2.40;;;-0.40;99.90;;;;;;4997564;28;20084;-67
2023/01/23 01:50:54;;;;;;;4.07;2.67;;;-0.40;99.90;;;;;;4994135;28;20046;-64
2023/01/23 01:53:24;;;;;;;3.40;3.10;;;-0.40;99.90;;;;;;4993762;28;20484;-66
2023/01/23 01:55:52;;;;;;;2.40;2.20;;;-0.40;99.90;;;;;;4990311;28;20089;-64
2023/01/23 01:58:19;;;;;;;5.25;3.40;;;-0.40;99.90;;;;;;4994961;28;20157;-64
2023/01/23 02:00:46;;;;;;;3.60;3.25;;;-0.40;99.90;;;;;;4996691;28;20858;-67
2023/01/23 02:03:14;;;;;;;2.53;2.33;;;-0.40;99.90;;;;;;4996660;28;20034;-65
2023/01/23 02:05:47;;;;;;;2.88;1.65;;;-0.40;99.90;;;;;;4999858;28;20045;-67
2023/01/23 02:08:36;;;;;;;2.05;1.25;;;-0.40;99.90;;;;;;4992764;28;20049;-65
2023/01/23 02:11:04;;;;;;;0.80;0.80;;;-0.50;99.90;;;;;;4990434;28;20845;-65
2023/01/23 02:13:38;;;;;;;1.30;0.50;;;-0.50;99.90;;;;;;4995116;28;20092;-67
2023/01/23 02:16:16;;;;;;;0.40;0.30;;;-0.40;99.90;;;;;;4991880;28;20125;-64
2023/01/23 02:18:49;;;;;;;0.98;0.55;;;-0.50;99.90;;;;;;4999095;28;20042;-64
2023/01/23 02:21:20;;;;;;;0.55;0.55;;;-0.50;99.90;;;;;;4995358;28;20081;-66
2023/01/23 02:24:02;;;;;;;0.60;0.52;;;-0.50;99.90;;;;;;4992361;28;20084;-64
2023/01/23 02:26:37;;;;;;;0.70;0.63;;;-0.50;99.90;;;;;;5011440;28;20085;-65
2023/01/23 02:29:05;;;;;;;0.50;0.50;;;-0.50;99.90;;;;;;5001768;28;20134;-66
2023/01/23 02:31:43;;;;;;;0.50;0.50;;;-0.50;99.90;;;;;;4988828;28;20456;-68
2023/01/23 02:34:12;;;;;;;0.60;0.60;;;-0.50;99.90;;;;;;5008553;28;20104;-67
2023/01/23 02:36:41;;;;;;;0.65;0.50;;;-0.50;99.90;;;;;;4992844;28;20046;-66
2023/01/23 02:39:14;;;;;;;0.70;0.70;;;-0.50;99.90;;;;;;4995758;28;20037;-68
2023/01/23 02:41:47;;;;;;;3.35;0.70;;;-0.50;99.90;;;;;;5003179;28;20054;-66
2023/01/23 02:44:27;;;;;;;0.82;0.63;;;-0.50;99.90;;;;;;5012505;28;20045;-66
2023/01/23 02:47:03;;;;;;;0.98;0.82;;;-0.50;99.90;;;;;;5009396;28;20069;-65
2023/01/23 02:49:30;;;;;;;;;;;-0.50;99.90;;;;;;4998092;28;20053;-66
2023/01/23 02:51:57;;;;;;;0.63;0.60;;;-0.50;99.90;;;;;;4987721;28;19936;-63
2023/01/23 02:54:25;;;;;;;1.23;0.93;;;-0.50;99.90;;;;;;5018081;28;20050;-65
2023/01/23 02:56:52;;;;;;;0.73;0.63;;;-0.50;99.90;;;;;;5005491;28;20834;-65
2023/01/23 03:02:07;;;;;;;0.95;0.95;;;-0.50;99.90;;;;;;4989958;28;20058;-65
2023/01/23 03:04:34;;;;;;;0.98;0.82;;;-0.50;99.90;;;;;;5001590;28;20050;-63
2023/01/23 03:07:01;;;;;;;1.08;0.98;;;-0.40;99.90;;;;;;4996606;28;20476;-68
2023/01/23 03:09:28;;;;;;;1.20;1.10;;;-0.40;99.90;;;;;;5006267;28;20125;-69
2023/01/23 03:11:55;;;;;;;1.02;1.00;;;-0.50;99.90;;;;;;4990741;28;20476;-63
2023/01/23 03:14:23;;;;;;;1.05;0.88;;;-0.50;99.90;;;;;;4997226;28;20053;-63
2023/01/23 03:16:52;;;;;;;1.15;0.93;;;-0.50;99.90;;;;;;5002449;28;20053;-66
2023/01/23 03:19:25;;;;;;;0.95;0.85;;;-0.50;99.90;;;;;;4987744;28;20034;-68
2023/01/23 03:21:53;;;;;;;1.55;1.10;;;-0.60;99.90;;;;;;4985724;28;20042;-68
2023/01/23 03:24:20;;;;;;;1.08;0.95;;;-0.60;99.90;;;;;;4992254;28;20153;-64
2023/01/23 03:26:49;;;;;;;1.90;1.20;;;-0.60;99.90;;;;;;4990626;28;20047;-66
2023/01/23 03:32:11;;;;;;;1.23;1.13;;;-0.60;99.90;;;;;;4989748;28;20049;-69
2023/01/23 03:34:40;;;;;;;1.05;1.00;;;-0.60;99.90;;;;;;4987989;28;20076;-66
2023/01/23 03:37:08;;;;;;;1.40;1.30;;;-0.60;99.90;;;;;;4998432;28;20062;-64
2023/01/23 03:42:22;;;;;;;1.60;1.50;;;-0.50;99.90;;;;;;5019097;28;20054;-68
2023/01/23 03:44:51;;;;;;;1.97;1.43;;;-0.60;99.90;;;;;;4991204;28;20563;-71
2023/01/23 03:47:22;;;;;;;1.92;1.83;;;-0.60;99.90;;;;;;4997894;28;20350;-68
2023/01/23 03:49:49;;;;;;;1.23;1.13;;;-0.60;99.90;;;;;;5019680;28;20042;-68
2023/01/23 03:52:18;;;;;;;0.98;0.95;;;-0.60;99.90;;;;;;5001027;28;20050;-64
2023/01/23 03:54:45;;;;;;;1.05;1.02;;;-0.60;99.90;;;;;;4989742;28;20056;-65
2023/01/23 03:57:13;;;;;;;1.23;1.10;;;-0.60;99.90;;;;;;4993379;28;20042;-67
2023/01/23 04:00:05;;;;;;;1.25;1.15;;;-0.60;99.90;;;;;;4990191;28;20050;-65
2023/01/23 04:02:47;;;;;;;1.90;1.27;;;-0.60;99.90;;;;;;4997990;28;20124;-65
2023/01/23 04:05:14;;;;;;;2.25;1.00;;;-0.60;99.90;;;;;;4992975;28;20046;-67
2023/01/23 04:07:42;;;;;;;1.08;1.00;;;-0.60;99.90;;;;;;4995092;28;20053;-66
2023/01/23 04:10:09;;;;;;;1.90;0.77;;;-0.70;99.90;;;;;;4992151;28;20046;-66
2023/01/23 04:12:47;;;;;;;1.45;0.90;;;-0.70;99.90;;;;;;5001796;28;20042;-68
2023/01/23 04:15:14;;;;;;;0.77;0.77;;;-0.70;99.90;;;;;;4991905;28;20073;-69
2023/01/23 04:17:41;;;;;;;1.92;1.10;;;-0.70;99.90;;;;;;4991173;28;20046;-64
2023/01/23 04:20:09;;;;;;;0.90;0.85;;;-0.70;99.90;;;;;;5028768;28;20096;-67
2023/01/23 04:22:36;;;;;;;1.15;0.90;;;-0.70;99.90;;;;;;4992183;28;20042;-64
2023/01/23 04:25:05;;;;;;;1.10;0.90;;;-0.70;99.90;;;;;;5010468;28;20053;-66
2023/01/23 04:27:32;;;;;;;2.35;0.90;;;-0.70;99.90;;;;;;5010795;28;20058;-69
2023/01/23 04:30:00;;;;;;;2.20;0.88;;;-0.70;99.90;;;;;;5014883;28;20045;-64
2023/01/23 04:32:27;;;;;;;1.45;0.93;;;-0.70;99.90;;;;;;5048518;28;20041;-66
2023/01/23 04:34:53;;;;;;;1.48;1.38;;;-0.70;99.90;;;;;;5017705;28;20144;-65
2023/01/23 04:37:21;;;;;;;1.98;1.27;;;-0.70;99.90;;;;;;5012781;28;20046;-65
2023/01/23 04:39:49;;;;;;;1.58;1.20;;;-0.70;99.90;;;;;;5013270;28;20365;-64
2023/01/23 04:42:17;;;;;;;1.70;1.50;;;-0.70;99.90;;;;;;5013751;28;20494;-66
2023/01/23 04:45:00;;;;;;;1.63;1.10;;;-0.70;99.90;;;;;;5016070;28;20040;-71
2023/01/23 04:47:46;;;;;;;2.28;1.63;;;-0.70;99.90;;;;;;5018910;28;20219;-69
2023/01/23 04:50:15;;;;;;;1.30;1.20;;;-0.70;99.90;;;;;;5013245;28;21385;-70
2023/01/23 04:52:44;;;;;;;1.35;1.25;;;-0.70;99.90;;;;;;5020578;28;20447;-64
2023/01/23 04:55:12;;;;;;;1.20;1.10;;;-0.70;99.90;;;;;;5009220;28;20656;-68
2023/01/23 04:57:40;;;;;;;1.15;0.88;;;-0.70;99.90;;;;;;5043027;28;20414;-67
2023/01/23 05:00:15;;;;;;;2.10;1.20;;;-0.60;99.90;;;;;;5005895;28;20361;-69
2023/01/23 05:02:45;;;;;;;1.50;1.40;;;-0.60;99.90;;;;;;5018454;28;20507;-65
2023/01/23 05:05:12;;;;;;;1.85;1.05;;;-0.60;99.90;;;;;;5012269;28;20046;-67
2023/01/23 05:07:40;;;;;;;0.77;0.77;;;-0.60;99.90;;;;;;5013616;28;20092;-66
2023/01/23 05:10:12;;;;;;;1.17;1.08;;;-0.60;99.90;;;;;;5013362;28;20045;-68
2023/01/23 05:12:41;;;;;;;1.42;1.33;;;-0.60;99.90;;;;;;5014914;28;20119;-64
2023/01/23 05:15:09;;;;;;;1.15;1.08;;;-0.60;99.90;;;;;;5012156;28;20384;-68
2023/01/23 05:17:38;;;;;;;1.58;1.33;;;-0.60;99.90;;;;;;5015692;28;20100;-70
2023/01/23 05:20:07;;;;;;;2.30;1.17;;;-0.60;99.90;;;;;;5012893;28;20458;-65
2023/01/23 05:22:36;;;;;;;4.57;1.40;;;-0.60;99.90;;;;;;5018405;28;20087;-67
2023/01/23 05:25:03;;;;;;;1.77;1.40;;;-0.60;99.90;;;;;;5012428;28;20065;-66
2023/01/23 05:27:30;;;;;;;1.67;1.38;;;-0.60;99.90;;;;;;5014853;28;20148;-65
2023/01/23 05:29:58;;;;;;;1.73;1.52;;;-0.60;99.90;;;;;;5013071;28;20139;-64
2023/01/23 05:32:28;;;;;;;3.40;1.50;;;-0.60;99.90;;;;;;5012716;28;20271;-65
2023/01/23 05:35:03;;;;;;;1.60;1.50;;;-0.60;99.90;;;;;;5013907;28;20117;-67
2023/01/23 05:37:30;;;;;;;2.10;1.90;;;-0.60;99.90;;;;;;5011585;28;20053;-66
2023/01/23 05:40:03;;;;;;;1.60;1.50;;;-0.50;99.90;;;;;;5047684;28;20136;-65
2023/01/23 05:42:50;;;;;;;1.70;1.60;;;-0.50;99.90;;;;;;5014103;28;20049;-64
2023/01/23 05:45:46;;;;;;;5.88;2.53;;;-0.60;99.90;;;;;;5013259;28;20709;-67
2023/01/23 05:48:23;;;;;;;2.63;2.42;;;-0.60;99.90;;;;;;5005992;28;20165;-63
2023/01/23 05:50:50;;;;;;;3.25;2.95;;;-0.60;99.90;;;;;;5044985;28;20065;-64
2023/01/23 05:53:18;;;;;;;2.72;2.53;;;-0.60;99.90;;;;;;5011364;28;20156;-67
2023/01/23 05:55:45;;;;;;;4.38;1.60;;;-0.60;99.90;;;;;;5009295;28;20050;-67
2023/01/23 05:58:13;;;;;;;2.17;1.95;;;-0.60;99.90;;;;;;5007684;28;20048;-64
2023/01/23 06:01:11;;;;;;;2.60;2.40;;;-0.50;99.90;;;;;;5009208;28;20144;-71
2023/01/23 06:04:01;;;;;;;2.20;2.00;;;-0.60;99.90;;;;;;5011474;28;20069;-64
2023/01/23 06:06:54;;;;;;;2.97;2.47;;;-0.60;99.90;;;;;;5015204;28;20050;-67
2023/01/23 06:09:22;;;;;;;2.60;2.40;;;-0.60;99.90;;;;;;5009243;28;20161;-65
2023/01/23 06:11:49;;;;;;;2.80;2.60;;;-0.60;99.90;;;;;;5016864;28;20548;-66
2023/01/23 06:14:16;;;;;;;3.75;2.75;;;-0.60;99.90;;;;;;5008661;28;20049;-70
2023/01/23 06:16:43;;;;;;;2.38;2.22;;;-0.60;99.90;;;;;;5041012;28;20144;-66
2023/01/23 06:19:10;;;;;;;5.72;3.40;;;-0.60;99.90;;;;;;5011884;28;20077;-65
2023/01/23 06:21:37;;;;;;;3.78;3.38;;;-0.60;99.90;;;;;;5048381;28;20096;-66
2023/01/23 06:24:05;;;;;;;3.70;3.40;;;-0.70;99.90;;;;;;5018751;28;20246;-64
2023/01/23 06:26:32;;;;;;;3.60;3.30;;;-0.70;99.90;;;;;;5008962;28;20053;-64
2023/01/23 06:28:59;;;;;;;4.55;3.53;;;-0.60;99.90;;;;;;5012110;28;20153;-68
2023/01/23 06:31:26;;;;;;;4.28;3.85;;;-0.60;99.90;;;;;;5013569;28;20437;-64
2023/01/23 06:33:58;;;;;;;5.18;3.75;;;-0.60;99.90;;;;;;5005533;28;20045;-64
2023/01/23 06:36:30;;;;;;;5.47;3.42;;;-0.60;99.90;;;;;;5013178;28;20128;-68
2023/01/23 06:38:57;;;;;;;4.20;3.67;;;-0.60;99.90;;;;;;5010316;28;20045;-64
2023/01/23 06:41:32;;;;;;;6.70;4.18;;;-0.70;99.90;;;;;;5019022;28;20037;-64
2023/01/23 06:44:02;;;;;;;4.85;4.03;;;-0.60;99.90;;;;;;5012397;28;20531;-64
2023/01/23 06:46:29;;;;;;;7.95;4.95;;;-0.60;99.90;;;;;;5011339;28;20369;-67
2023/01/23 06:48:56;;;;;;;10.02;5.82;;;-0.60;99.90;;;;;;5013989;28;20046;-65
2023/01/23 06:51:24;;;;;;;5.05;3.80;;;-0.60;99.90;;;;;;5013453;28;20050;-64
2023/01/23 06:53:51;;;;;;;4.97;3.20;;;-0.60;99.90;;;;;;5007570;28;20072;-65
2023/01/23 06:56:18;;;;;;;4.38;3.38;;;-0.60;99.90;;;;;;5010518;28;20128;-68
2023/01/23 06:58:47;;;;;;;7.28;3.38;;;-0.60;99.90;;;;;;5014378;28;20461;-65
2023/01/23 07:01:21;;;;;;;6.05;3.38;;;-0.60;99.90;;;;;;5014969;28;20038;-66
2023/01/23 07:04:12;;;;;;;6.78;2.90;;;-0.50;99.90;;;;;;5009362;28;20049;-67
2023/01/23 07:06:41;;;;;;;2.92;2.50;;;-0.60;99.90;;;;;;5029570;28;20041;-64
2023/01/23 07:09:08;;;;;;;3.95;3.50;;;-0.60;99.90;;;;;;5013439;28;20462;-67
2023/01/23 07:11:36;;;;;;;6.53;3.25;;;-0.60;99.90;;;;;;5012262;28;20063;-64
2023/01/23 07:14:04;;;;;;;3.35;2.15;;;-0.60;99.90;;;;;;5014215;28;20057;-65
2023/01/23 07:16:34;;;;;;;7.82;3.10;;;-0.50;99.90;;;;;;5010960;28;20806;-64
2023/01/23 07:19:04;;;;;;;8.25;3.95;;;-0.60;99.90;;;;;;5017783;28;20045;-63
2023/01/23 07:21:33;;;;;;;9.10;4.03;;;-0.60;99.90;;;;;;5012464;28;20142;-65
2023/01/23 07:23:59;;;;;;;7.10;3.95;;;-0.60;99.90;;;;;;5008611;28;20421;-65
2023/01/23 07:26:26;;;;;;;8.50;4.25;;;-0.60;99.90;;;;;;5011421;28;20042;-64
2023/01/23 07:28:53;;;;;;;6.43;3.95;;;-0.60;99.90;;;;;;5010411;28;20495;-67
2023/01/23 07:31:20;;;;;;;9.52;3.92;;;-0.60;99.90;;;;;;5012239;28;20073;-64
2023/01/23 07:33:48;;;;;;;6.05;5.15;;;-0.50;99.90;;;;;;5011288;28;20045;-65
2023/01/23 07:36:17;;;;;;;10.10;5.45;;;-0.50;99.90;;;;;;5015349;28;20636;-66
2023/01/23 07:38:44;;;;;;;7.45;5.55;;;-0.50;99.90;;;;;;5014202;28;20050;-65
2023/01/23 07:41:11;;;;;;;5.47;4.25;;;-0.40;99.90;;;;;;5011985;28;20045;-69
2023/01/23 07:43:38;;;;;;;4.50;3.50;;;-0.40;99.90;;;;;;5010232;28;20057;-67
2023/01/23 07:46:05;;;;;;;4.97;2.65;;;-0.50;99.90;;;;;;5008959;28;20053;-67
2023/01/23 07:48:32;;;;;;;3.47;2.88;;;-0.40;99.90;;;;;;5009145;28;20050;-67
2023/01/23 07:51:01;;;;;;;2.95;2.25;;;-0.40;99.90;;;;;;5015760;28;20152;-64
2023/01/23 07:53:29;;;;;;;6.53;2.00;;;-0.40;99.90;;;;;;5008986;28;20147;-64
2023/01/23 07:55:56;;;;;;;7.43;3.13;;;-0.30;99.90;;;;;;5012887;28;20064;-64
2023/01/23 07:58:22;;;;;;;3.55;3.25;;;-0.30;99.90;;;;;;5014677;28;20145;-66
2023/01/23 08:00:49;;;;;;;5.32;3.15;;;-0.30;99.90;;;;;;5016599;28;20056;-65
2023/01/23 08:03:19;;;;;;;8.10;3.78;;;-0.20;99.90;;;;;;5014237;28;20063;-66
2023/01/23 08:05:49;;;;;;;3.60;3.20;;;-0.20;99.90;;;;;;5023633;28;20151;-65
2023/01/23 08:08:16;;;;;;;7.03;4.80;;;-0.20;99.90;;;;;;5012835;28;20056;-65
2023/01/23 08:10:43;;;;;;;3.97;3.55;;;-0.20;99.90;;;;;;5012636;28;20502;-65
2023/01/23 08:13:10;;;;;;;4.20;3.63;;;-0.20;99.90;;;;;;5014429;28;20045;-65
2023/01/23 08:15:37;;;;;;;4.38;3.42;;;-0.20;99.90;;;;;;5013450;28;20494;-64
2023/01/23 08:18:05;;;;;;;3.38;3.05;;;-0.10;99.90;;;;;;5014452;28;20420;-66
2023/01/23 08:20:32;;;;;;;5.07;2.28;;;-0.10;99.90;;;;;;5012434;28;20048;-64
2023/01/23 08:23:00;;;;;;;3.00;1.98;;;0.00;99.90;;;;;;5006702;28;20737;-64
2023/01/23 08:25:28;;;;;;;4.50;3.38;;;0.10;99.90;;;;;;5006169;28;20052;-63
2023/01/23 08:27:55;;;;;;;6.93;6.15;;;0.10;99.90;;;;;;5010867;28;20737;-65
2023/01/23 08:30:23;;;;;;;3.00;2.10;;;0.10;99.90;;;;;;5006657;28;20046;-63
2023/01/23 08:32:49;;;;;;;1.88;1.35;;;0.20;99.90;;;;;;5011027;28;20050;-64
2023/01/23 08:35:17;;;;;;;2.60;1.10;;;0.20;99.90;;;;;;5012860;28;20058;-66
2023/01/23 08:37:44;;;;;;;1.10;0.95;;;0.30;99.90;;;;;;5013852;28;20091;-65
2023/01/23 08:40:11;;;;;;;2.25;1.02;;;0.40;99.90;;;;;;5010017;28;20077;-65
2023/01/23 08:42:38;;;;;;;2.15;0.90;;;0.40;99.90;;;;;;5012472;28;20095;-64
2023/01/23 08:46:22;;;;;;;8.38;1.80;;;0.40;99.90;;;;;;5002561;28;20037;-68
2023/01/23 08:50:27;;;;;;;0.75;0.70;;;0.40;99.90;;;;;;4989457;28;20100;-67
2023/01/23 08:54:32;;;;;;;2.42;0.90;;;0.50;99.90;;;;;;4988816;28;20041;-65
2023/01/23 08:58:37;;;;;;;0.70;0.70;;;0.50;99.90;;;;;;4984466;28;20057;-65
2023/01/23 09:02:47;;;;;;;5.82;2.55;;;0.50;99.90;;;;;;4988170;28;20379;-65
2023/01/23 09:06:53;;;;;;;5.77;2.53;;;0.50;99.90;;;;;;4986234;28;20641;-68
2023/01/23 09:11:00;;;;;;;2.15;1.52;;;0.60;99.90;;;;;;4985485;28;20279;-67
2023/01/23 09:15:06;;;;;;;1.45;1.35;;;0.60;99.90;;;;;;4983279;28;20030;-67
2023/01/23 09:19:14;;;;;;;2.03;0.70;;;0.60;99.90;;;;;;4986265;28;20116;-67
2023/01/23 09:23:20;;;;;;;1.73;1.20;;;0.60;99.90;;;;;;4989682;28;20061;-65
2023/01/23 09:27:26;;;;;;;1.52;0.90;;;0.60;99.90;;;;;;4991817;28;20091;-68
2023/01/23 09:31:36;;;;;;;1.65;1.20;;;0.60;99.90;;;;;;4989875;28;20381;-67
2023/01/23 09:34:03;;;;;;;4.53;1.08;;;0.60;99.90;;;;;;4994887;28;20055;-66
2023/01/23 09:36:30;;;;;;;1.35;1.05;;;0.60;99.90;;;;;;4991926;28;20074;-64
2023/01/23 09:39:08;;;;;;;1.80;0.90;;;0.60;99.90;;;;;;4989810;28;20120;-65
2023/01/23 09:41:38;;;;;;;2.72;1.08;;;0.60;99.90;;;;;;4989333;28;20042;-67
2023/01/23 09:44:32;;;;;;;3.22;1.00;;;0.60;99.90;;;;;;4992204;28;20489;-69
2023/01/23 09:47:14;;;;;;;3.55;1.17;;;0.60;99.90;;;;;;4988095;28;20069;-66
2023/01/23 09:49:47;;;;;;;4.55;1.23;;;0.70;99.90;;;;;;4994400;28;20069;-68
2023/01/23 09:52:24;;;;;;;3.90;1.30;;;0.70;99.90;;;;;;4993262;28;20447;-65
2023/01/23 09:54:58;;;;;;;3.78;1.55;;;0.70;99.90;;;;;;4990354;28;20104;-65
2023/01/23 09:57:29;;;;;;;2.15;1.88;;;0.70;99.90;;;;;;4994516;28;20098;-65
2023/01/23 10:00:05;;;;;;;;;;;0.70;99.90;;;;;;4993097;28;20038;-65
2023/01/23 10:02:33;;;;;;;2.78;1.50;;;0.80;99.90;;;;;;5008802;28;19960;-63
2023/01/23 10:05:01;;;;;;;2.90;1.70;;;0.80;99.90;;;;;;5008082;28;20064;-63
2023/01/23 10:07:57;;;;;;;2.38;1.55;;;0.80;99.90;;;;;;4997750;28;20128;-63
2023/01/23 10:10:39;;;;;;;1.33;1.00;;;0.80;99.90;;;;;;4994722;28;20065;-66
2023/01/23 10:13:35;;;;;;;2.80;0.90;;;0.80;99.90;;;;;;4992355;28;20125;-67
2023/01/23 10:16:20;;;;;;;3.13;1.48;;;0.80;99.90;;;;;;4994472;28;20053;-68
2023/01/23 10:19:04;;;;;;;1.80;1.33;;;0.70;99.90;;;;;;4995389;28;20432;-64
2023/01/23 10:22:01;;;;;;;2.58;1.42;;;0.80;99.90;;;;;;4991894;28;20137;-65
2023/01/23 10:24:41;;;;;;;2.08;1.10;;;0.80;99.90;;;;;;4999104;28;20085;-66
2023/01/23 10:27:21;;;;;;;13.40;1.88;;;0.90;99.90;;;;;;4990521;28;20053;-65
2023/01/23 10:29:57;;;;;;;1.30;1.10;;;0.90;99.90;;;;;;4987869;28;20100;-68
2023/01/23 10:32:29;;;;;;;0.82;0.68;;;1.00;99.90;;;;;;4996716;28;20046;-67
2023/01/23 10:35:12;;;;;;;3.78;1.23;;;1.00;99.90;;;;;;5006607;28;20085;-64
2023/01/23 10:37:52;;;;;;;1.95;1.10;;;1.00;99.90;;;;;;5018080;28;20045;-65
2023/01/23 10:43:16;;;;;;;1.45;0.73;;;1.00;99.90;;;;;;5017168;28;20046;-63
2023/01/23 10:45:45;;;;;;;3.95;1.15;;;1.00;99.90;;;;;;5016639;28;20078;-63
2023/01/23 10:48:38;;;;;;;1.15;1.05;;;1.00;99.90;;;;;;5009370;28;20042;-64
2023/01/23 10:51:24;;;;;;;2.42;1.10;;;1.10;99.90;;;;;;5014496;28;20456;-65
2023/01/23 10:54:12;;;;;;;4.85;1.27;;;1.10;99.90;;;;;;5017243;28;20053;-64
2023/01/23 10:57:08;;;;;;;4.40;2.30;;;1.10;99.90;;;;;;5017692;28;20119;-65
2023/01/23 10:59:39;;;;;;;4.90;1.65;;;1.20;99.90;;;;;;5019992;28;20144;-65
2023/01/23 11:02:12;;;;;;;4.18;1.33;;;1.10;99.90;;;;;;5011293;28;20041;-65
2023/01/23 11:04:41;;;;;;;4.57;1.10;;;1.10;99.90;;;;;;5011447;28;20053;-64
2023/01/23 11:07:12;;;;;;;6.35;1.60;;;1.10;99.90;;;;;;5011139;28;20069;-64
2023/01/23 11:09:47;;;;;;;7.28;1.95;;;1.10;99.90;;;;;;5013349;28;20452;-66
2023/01/23 11:12:20;;;;;;;3.83;1.50;;;1.10;99.90;;;;;;5010992;28;20132;-66
2023/01/23 11:14:48;;;;;;;6.72;1.75;;;1.00;99.90;;;;;;5009653;28;20443;-70
2023/01/23 11:17:24;;;;;;;7.03;2.03;;;1.00;99.90;;;;;;5044964;28;20079;-64
2023/01/23 11:19:53;;;;;;;7.05;2.35;;;1.00;99.90;;;;;;5012848;28;20133;-65
2023/01/23 11:22:37;;;;;;;3.25;2.42;;;1.00;99.90;;;;;;5018799;28;20140;-67
2023/01/23 11:25:27;;;;;;;8.63;3.30;;;0.90;99.90;;;;;;5010798;28;20050;-68
2023/01/23 11:27:59;;;;;;;7.37;2.60;;;0.90;99.90;;;;;;5008695;28;20431;-63
2023/01/23 11:30:29;;;;;;;5.72;3.30;;;0.90;99.90;;;;;;5010151;28;20758;-65
2023/01/23 11:33:25;;;;;;;6.93;3.17;;;0.90;99.90;;;;;;5007477;28;20045;-66
2023/01/23 11:36:04;;;;;;;6.35;4.18;;;0.90;99.90;;;;;;5000772;28;20077;-68
2023/01/23 11:38:40;;;;;;;6.30;2.80;;;0.90;99.90;;;;;;5010870;28;20046;-68
2023/01/23 11:41:23;;;;;;;10.98;4.22;;;0.80;99.90;;;;;;5014830;28;20051;-66
2023/01/23 11:43:51;;;;;;;8.27;3.42;;;0.70;99.90;;;;;;5013422;28;20049;-66
2023/01/23 11:46:31;;;;;;;7.57;3.53;;;0.60;99.90;;;;;;5008113;28;20033;-66
2023/01/23 11:48:58;;;;;;;9.98;3.60;;;0.50;99.90;;;;;;4976707;28;20048;-67
2023/01/23 11:51:42;;;;;;;7.97;4.35;;;0.60;99.90;;;;;;5016426;28;20068;-65
2023/01/23 11:54:16;;;;;;;7.95;4.20;;;0.60;99.90;;;;;;5005141;28;20076;-65
2023/01/23 11:56:51;;;;;;;6.20;4.13;;;0.60;99.90;;;;;;5011655;28;20050;-66
2023/01/23 11:59:45;;;;;;;5.20;4.03;;;0.60;99.90;;;;;;5007890;28;20533;-67
2023/01/23 12:02:36;;;;;;;10.77;5.35;;;0.60;99.90;;;;;;5007410;28;20416;-69
2023/01/23 12:05:19;;;;;;;11.05;4.68;;;0.60;99.90;;;;;;5005646;28;20042;-66
2023/01/23 12:08:14;;;;;;;7.50;4.25;;;0.60;99.90;;;;;;5017437;28;20054;-66
2023/01/23 12:11:12;;;;;;;9.63;4.82;;;0.60;99.90;;;;;;5007823;28;20065;-69
2023/01/23 12:14:04;;;;;;;13.85;5.85;;;0.50;99.90;;;;;;5016164;28;20052;-67
2023/01/23 12:16:49;;;;;;;11.57;4.78;;;0.50;99.90;;;;;;5016602;28;20049;-63
2023/01/23 12:19:45;;;;;;;6.18;4.13;;;0.50;99.90;;;;;;5009987;28;20072;-67
2023/01/23 12:22:49;;;;;;;8.88;4.43;;;0.40;99.90;;;;;;5014282;28;20053;-67
2023/01/23 12:25:28;;;;;;;6.18;3.35;;;0.30;99.90;;;;;;5013449;28;20508;-68
2023/01/23 12:28:38;;;;;;;6.90;3.67;;;0.20;99.90;;;;;;5019798;28;20130;-63
2023/01/23 12:31:28;;;;;;;8.88;4.15;;;0.20;99.90;;;;;;4964545;28;20130;-62
2023/01/23 12:34:37;;;;;;;12.95;5.65;;;0.20;99.90;;;;;;4957064;28;20132;-64
2023/01/23 12:37:23;;;;;;;7.30;3.78;;;0.30;99.90;;;;;;5006678;28;20149;-64
2023/01/23 12:40:13;;;;;;;9.52;3.53;;;0.30;99.90;;;;;;5011270;28;20392;-64
2023/01/23 12:42:58;;;;;;;10.02;3.97;;;0.30;99.90;;;;;;5010156;28;20133;-63
2023/01/23 12:45:27;;;;;;;6.47;4.35;;;0.30;99.90;;;;;;5011895;28;20049;-65
2023/01/23 12:48:11;;;;;;;8.80;4.20;;;0.30;99.90;;;;;;5009180;28;20050;-62
2023/01/23 12:50:45;;;;;;;7.20;3.35;;;0.30;99.90;;;;;;5012909;28;20121;-66
2023/01/23 12:53:18;;;;;;;4.95;3.78;;;0.30;99.90;;;;;;5011142;28;20080;-65
2023/01/23 12:55:56;;;;;;;10.48;3.58;;;0.40;99.90;;;;;;5013337;28;20597;-64
2023/01/23 12:58:27;;;;;;;14.55;3.80;;;0.30;99.90;;;;;;5010393;28;20066;-66
2023/01/23 13:01:24;;;;;;;5.63;3.28;;;0.30;99.90;;;;;;5014698;28;20045;-66
2023/01/23 13:04:10;;;;;;;11.02;2.97;;;0.30;99.90;;;;;;5012031;28;20038;-63
2023/01/23 13:06:45;;;;;;;8.88;3.08;;;0.30;99.90;;;;;;5012755;28;20445;-63
2023/01/23 13:09:35;;;;;;;11.43;3.13;;;0.30;99.90;;;;;;5014625;28;20385;-63
2023/01/23 13:12:26;;;;;;;6.00;2.67;;;0.30;99.90;;;;;;5014309;28;20057;-67
2023/01/23 13:15:32;;;;;;;11.38;5.05;;;0.20;99.90;;;;;;5017025;28;20060;-64
2023/01/23 13:18:24;;;;;;;4.82;2.97;;;0.20;99.90;;;;;;4952763;28;20113;-62
2023/01/23 13:25:08;;;;;;;4.55;2.53;;;0.20;99.90;;;;;;5009205;28;20164;-66
2023/01/23 13:26:35;;;;;;;5.90;2.45;;;0.20;99.90;;;;;;5019476;28;20069;-63
2023/01/23 13:29:03;;;;;;;2.97;2.25;;;0.20;99.90;;;;;;5008064;28;20053;-65
2023/01/23 13:31:45;;;;;;;7.20;1.90;;;0.20;99.90;;;;;;5018047;28;20136;-63
2023/01/23 13:34:16;;;;;;;21.80;3.17;;;0.20;99.90;;;;;;5012462;28;20057;-63
2023/01/23 13:36:47;;;;;;;5.10;1.98;;;0.20;99.90;;;;;;5012052;28;20104;-62
2023/01/23 13:39:20;;;;;;;5.70;2.58;;;0.20;99.90;;;;;;5010279;28;20045;-65
2023/01/23 13:42:10;;;;;;;12.43;2.20;;;0.20;99.90;;;;;;4994357;28;20038;-63
2023/01/23 13:45:12;;;;;;;1.98;1.55;;;0.10;99.90;;;;;;4990337;28;20066;-63
2023/01/23 13:51:17;;;;;;;4.65;1.95;;;0.10;99.90;;;;;;4927532;28;20432;-66
2023/01/23 13:56:57;;;;;;;10.52;1.95;;;0.00;99.90;;;;;;4845972;29;20050;-63
2023/01/23 13:59:46;;;;;;;5.55;1.98;;;0.00;99.90;;;;;;4792547;29;20072;-65
2023/01/23 14:05:41;;;;;;;11.90;2.72;;;-0.10;99.90;;;;;;4705060;30;20064;-63